sensor_id;sensor_type;location;lat;lon;timestamp;pressure;altitude;pressure_sealevel;temperature;humidity
29879;BME280;16752;53.364;-1.488;2023-04-09T11:28:09;100856.78;;;18.15;37.41
29879;BME280;16752;53.364;-1.488;2023-04-09T17:18:00;100425.34;;;20.18;35.13
29879;BME280;16752;53.364;-1.488;2023-04-09T17:23:39;100421.66;;;20.61;34.98
29879;BME280;16752;53.364;-1.488;2023-04-09T17:26:41;100325.75;;;19.02;36.51
29879;BME280;16752;53.364;-1.488;2023-04-09T17:29:43;100394.38;;;19.40;36.58
29879;BME280;16752;53.364;-1.488;2023-04-09T17:32:50;100416.94;;;19.36;37.21
29879;BME280;16752;53.364;-1.488;2023-04-09T17:35:38;100383.63;;;19.50;36.93
29879;BME280;16752;53.364;-1.488;2023-04-09T17:38:56;100353.19;;;18.67;38.01
29879;BME280;16752;53.364;-1.488;2023-04-09T17:41:47;100379.03;;;18.19;39.10
29879;BME280;16752;53.364;-1.488;2023-04-09T17:45:21;100417.13;;;19.61;37.42
29879;BME280;16752;53.364;-1.488;2023-04-09T17:48:12;100362.38;;;18.98;37.52
29879;BME280;16752;53.364;-1.488;2023-04-09T17:51:16;100421.88;;;19.31;37.47
29879;BME280;16752;53.364;-1.488;2023-04-09T17:54:33;100297.31;;;18.68;37.86
29879;BME280;16752;53.364;-1.488;2023-04-09T17:57:32;100389.66;;;19.08;38.01
29879;BME280;16752;53.364;-1.488;2023-04-09T18:00:34;100406.31;;;18.75;38.81
29879;BME280;16752;53.364;-1.488;2023-04-09T18:03:19;100401.16;;;19.09;38.36
29879;BME280;16752;53.364;-1.488;2023-04-09T18:06:04;100324.16;;;19.09;37.38
29879;BME280;16752;53.364;-1.488;2023-04-09T18:08:50;100354.75;;;18.77;38.71
29879;BME280;16752;53.364;-1.488;2023-04-09T18:11:37;100292.78;;;19.80;35.71
29879;BME280;16752;53.364;-1.488;2023-04-09T18:14:22;100394.22;;;20.02;36.51
29879;BME280;16752;53.364;-1.488;2023-04-09T18:17:11;100275.63;;;19.33;36.52
29879;BME280;16752;53.364;-1.488;2023-04-09T18:20:00;100390.94;;;19.74;37.26
29879;BME280;16752;53.364;-1.488;2023-04-09T18:22:50;100276.97;;;18.59;38.12
29879;BME280;16752;53.364;-1.488;2023-04-09T18:25:35;100280.22;;;19.22;36.89
29879;BME280;16752;53.364;-1.488;2023-04-09T18:28:32;100385.25;;;18.73;38.80
29879;BME280;16752;53.364;-1.488;2023-04-09T18:31:24;100282.00;;;18.44;38.17
29879;BME280;16752;53.364;-1.488;2023-04-09T18:37:24;100269.63;;;18.97;37.33
29879;BME280;16752;53.364;-1.488;2023-04-09T18:40:15;100269.06;;;19.11;37.21
29879;BME280;16752;53.364;-1.488;2023-04-09T18:43:27;100376.44;;;20.02;36.27
29879;BME280;16752;53.364;-1.488;2023-04-09T18:46:18;100269.78;;;18.69;38.00
29879;BME280;16752;53.364;-1.488;2023-04-09T18:49:37;100371.47;;;20.15;36.16
29879;BME280;16752;53.364;-1.488;2023-04-09T18:52:38;100263.22;;;18.02;39.31
29879;BME280;16752;53.364;-1.488;2023-04-09T18:55:30;100373.94;;;19.67;37.48
29879;BME280;16752;53.364;-1.488;2023-04-09T18:59:16;100381.41;;;19.37;38.01
29879;BME280;16752;53.364;-1.488;2023-04-09T19:14:12;100251.84;;;18.27;38.91
29879;BME280;16752;53.364;-1.488;2023-04-09T19:17:28;100378.91;;;18.66;39.37
29879;BME280;16752;53.364;-1.488;2023-04-09T19:20:45;100269.72;;;17.35;40.24
29879;BME280;16752;53.364;-1.488;2023-04-09T20:14:40;100303.09;;;18.89;38.69
29879;BME280;16752;53.364;-1.488;2023-04-09T20:21:15;100214.56;;;18.47;37.94
29879;BME280;16752;53.364;-1.488;2023-04-09T20:28:02;100219.44;;;18.59;37.63
29879;BME280;16752;53.364;-1.488;2023-04-09T20:34:54;100206.16;;;18.16;38.91
29879;BME280;16752;53.364;-1.488;2023-04-09T20:38:08;100205.84;;;17.65;40.16
29879;BME280;16752;53.364;-1.488;2023-04-09T20:44:54;100156.72;;;17.53;39.60
29879;BME280;16752;53.364;-1.488;2023-04-09T20:47:48;100138.72;;;17.39;39.53
29879;BME280;16752;53.364;-1.488;2023-04-09T21:01:16;100208.41;;;17.39;39.64
29879;BME280;16752;53.364;-1.488;2023-04-09T21:04:21;100161.00;;;17.82;38.62
29879;BME280;16752;53.364;-1.488;2023-04-09T21:19:36;100197.19;;;17.91;38.80
29879;BME280;16752;53.364;-1.488;2023-04-09T21:29:45;100097.31;;;17.56;38.91
29879;BME280;16752;53.364;-1.488;2023-04-09T21:48:48;100109.44;;;18.46;37.22
29879;BME280;16752;53.364;-1.488;2023-04-09T21:59:36;100103.03;;;16.98;40.01
29879;BME280;16752;53.364;-1.488;2023-04-09T22:02:20;100020.53;;;16.47;39.25
29879;BME280;16752;53.364;-1.488;2023-04-09T22:05:11;100128.81;;;17.41;38.90
29879;BME280;16752;53.364;-1.488;2023-04-09T22:07:56;100076.34;;;17.62;37.97
29879;BME280;16752;53.364;-1.488;2023-04-09T22:52:44;99961.16;;;17.66;35.65
29879;BME280;16752;53.364;-1.488;2023-04-09T23:16:35;99995.00;;;18.32;34.78
29879;BME280;16752;53.364;-1.488;2023-04-09T23:19:22;100089.69;;;18.14;36.05
29879;BME280;16752;53.364;-1.488;2023-04-09T23:22:56;100072.31;;;18.54;35.52
29879;BME280;16752;53.364;-1.488;2023-04-09T23:59:00;100008.22;;;17.98;39.87
